sensor_id;sensor_type;location;lat;lon;timestamp;pressure;altitude;pressure_sealevel;temperature;humidity
77281;BME280;66339;47.262;17.144;2023-04-15T00:02:21;98932.41;;;19.63;46.41
77281;BME280;66339;47.262;17.144;2023-04-15T00:04:51;98924.34;;;19.63;46.29
77281;BME280;66339;47.262;17.144;2023-04-15T00:07:19;98927.81;;;19.64;46.21
77281;BME280;66339;47.262;17.144;2023-04-15T00:09:49;98922.00;;;19.61;46.28
77281;BME280;66339;47.262;17.144;2023-04-15T00:12:17;98923.03;;;19.60;46.33
77281;BME280;66339;47.262;17.144;2023-04-15T00:14:47;98914.22;;;19.60;46.32
77281;BME280;66339;47.262;17.144;2023-04-15T00:17:17;98916.09;;;19.59;46.26
77281;BME280;66339;47.262;17.144;2023-04-15T00:19:45;98923.69;;;19.57;46.34
77281;BME280;66339;47.262;17.144;2023-04-15T00:22:14;98924.47;;;19.58;46.21
77281;BME280;66339;47.262;17.144;2023-04-15T00:24:41;98917.22;;;19.58;46.25
77281;BME280;66339;47.262;17.144;2023-04-15T00:27:12;98915.66;;;19.57;46.19
77281;BME280;66339;47.262;17.144;2023-04-15T00:29:44;98915.16;;;19.55;46.46
77281;BME280;66339;47.262;17.144;2023-04-15T00:32:14;98917.03;;;19.55;46.24
77281;BME280;66339;47.262;17.144;2023-04-15T00:34:44;98915.16;;;19.55;46.25
77281;BME280;66339;47.262;17.144;2023-04-15T00:37:11;98916.72;;;19.56;46.30
77281;BME280;66339;47.262;17.144;2023-04-15T00:39:41;98921.63;;;19.54;46.27
77281;BME280;66339;47.262;17.144;2023-04-15T00:42:15;98916.88;;;19.51;46.41
77281;BME280;66339;47.262;17.144;2023-04-15T00:44:46;98921.91;;;19.53;46.26
77281;BME280;66339;47.262;17.144;2023-04-15T00:47:15;98923.81;;;19.52;46.23
77281;BME280;66339;47.262;17.144;2023-04-15T00:49:43;98924.31;;;19.54;46.26
77281;BME280;66339;47.262;17.144;2023-04-15T00:52:17;98919.56;;;19.51;46.19
77281;BME280;66339;47.262;17.144;2023-04-15T00:54:50;98924.13;;;19.51;46.45
77281;BME280;66339;47.262;17.144;2023-04-15T00:57:20;98928.69;;;19.50;46.21
77281;BME280;66339;47.262;17.144;2023-04-15T00:59:50;98930.88;;;19.48;46.35
77281;BME280;66339;47.262;17.144;2023-04-15T01:02:24;98924.75;;;19.48;46.21
77281;BME280;66339;47.262;17.144;2023-04-15T01:04:52;98923.16;;;19.47;46.47
77281;BME280;66339;47.262;17.144;2023-04-15T01:07:20;98923.94;;;19.47;46.38
77281;BME280;66339;47.262;17.144;2023-04-15T01:09:55;98927.75;;;19.46;46.33
77281;BME280;66339;47.262;17.144;2023-04-15T01:12:23;98928.81;;;19.45;46.36
77281;BME280;66339;47.262;17.144;2023-04-15T01:14:55;98933.72;;;19.43;46.36
77281;BME280;66339;47.262;17.144;2023-04-15T01:17:24;98925.66;;;19.43;46.27
77281;BME280;66339;47.262;17.144;2023-04-15T01:19:55;98929.13;;;19.44;46.19
77281;BME280;66339;47.262;17.144;2023-04-15T01:22:26;98928.34;;;19.43;46.38
77281;BME280;66339;47.262;17.144;2023-04-15T01:25:04;98929.47;;;19.42;46.20
77281;BME280;66339;47.262;17.144;2023-04-15T01:27:43;98932.13;;;19.42;46.39
77281;BME280;66339;47.262;17.144;2023-04-15T01:30:11;98926.28;;;19.40;46.20
77281;BME280;66339;47.262;17.144;2023-04-15T01:32:39;98927.37;;;19.39;46.24
77281;BME280;66339;47.262;17.144;2023-04-15T01:35:12;98933.53;;;19.40;46.23
77281;BME280;66339;47.262;17.144;2023-04-15T01:37:44;98934.31;;;19.40;46.33
77281;BME280;66339;47.262;17.144;2023-04-15T01:40:12;98938.12;;;19.39;46.24
77281;BME280;66339;47.262;17.144;2023-04-15T01:42:39;98939.22;;;19.38;46.35
77281;BME280;66339;47.262;17.144;2023-04-15T01:45:15;98934.94;;;19.37;46.28
77281;BME280;66339;47.262;17.144;2023-04-15T01:47:42;98937.62;;;19.37;46.43
77281;BME280;66339;47.262;17.144;2023-04-15T01:50:10;98936.03;;;19.36;46.16
77281;BME280;66339;47.262;17.144;2023-04-15T01:52:41;98934.47;;;19.35;46.24
77281;BME280;66339;47.262;17.144;2023-04-15T01:55:10;98935.56;;;19.34;46.28
77281;BME280;66339;47.262;17.144;2023-04-15T01:57:41;98935.06;;;19.32;46.40
77281;BME280;66339;47.262;17.144;2023-04-15T02:00:14;98939.31;;;19.33;46.31
77281;BME280;66339;47.262;17.144;2023-04-15T02:02:44;98935.06;;;19.32;46.31
77281;BME280;66339;47.262;17.144;2023-04-15T02:05:12;98943.13;;;19.32;46.37
77281;BME280;66339;47.262;17.144;2023-04-15T02:07:43;98946.91;;;19.31;46.22
77281;BME280;66339;47.262;17.144;2023-04-15T02:10:11;98942.31;;;19.31;46.32
77281;BME280;66339;47.262;17.144;2023-04-15T02:12:39;98937.56;;;19.28;46.26
77281;BME280;66339;47.262;17.144;2023-04-15T02:15:09;98934.59;;;19.30;46.35
77281;BME280;66339;47.262;17.144;2023-04-15T02:17:46;98942.94;;;19.28;46.29
77281;BME280;66339;47.262;17.144;2023-04-15T02:20:18;98938.38;;;19.29;46.33
77281;BME280;66339;47.262;17.144;2023-04-15T02:22:52;98945.94;;;19.27;46.43
77281;BME280;66339;47.262;17.144;2023-04-15T02:25:26;98947.50;;;19.28;46.42
77281;BME280;66339;47.262;17.144;2023-04-15T02:27:56;98942.16;;;19.28;46.41
77281;BME280;66339;47.262;17.144;2023-04-15T02:30:27;98943.53;;;19.25;46.39
77281;BME280;66339;47.262;17.144;2023-04-15T02:32:57;98942.75;;;19.25;46.42
77281;BME280;66339;47.262;17.144;2023-04-15T02:35:28;98940.56;;;19.27;46.34
77281;BME280;66339;47.262;17.144;2023-04-15T02:37:56;98938.19;;;19.25;46.32
77281;BME280;66339;47.262;17.144;2023-04-15T02:40:26;98932.81;;;19.25;46.34
77281;BME280;66339;47.262;17.144;2023-04-15T02:42:56;98935.81;;;19.24;46.42
77281;BME280;66339;47.262;17.144;2023-04-15T02:45:24;98941.19;;;19.24;46.36
77281;BME280;66339;47.262;17.144;2023-04-15T02:47:51;98947.66;;;19.23;46.46
77281;BME280;66339;47.262;17.144;2023-04-15T02:50:19;98948.75;;;19.22;46.53
77281;BME280;66339;47.262;17.144;2023-04-15T02:52:50;98941.00;;;19.20;46.38
77281;BME280;66339;47.262;17.144;2023-04-15T02:55:20;98940.22;;;19.20;46.38
77281;BME280;66339;47.262;17.144;2023-04-15T02:57:48;98942.41;;;19.18;46.32
77281;BME280;66339;47.262;17.144;2023-04-15T03:00:19;98944.00;;;19.19;46.41
77281;BME280;66339;47.262;17.144;2023-04-15T03:02:46;98938.94;;;19.17;46.31
77281;BME280;66339;47.262;17.144;2023-04-15T03:05:14;98943.22;;;19.18;46.35
77281;BME280;66339;47.262;17.144;2023-04-15T03:07:48;98933.87;;;19.16;46.39
77281;BME280;66339;47.262;17.144;2023-04-15T03:10:17;98938.47;;;19.15;46.42
77281;BME280;66339;47.262;17.144;2023-04-15T03:12:48;98939.25;;;19.16;46.33
77281;BME280;66339;47.262;17.144;2023-04-15T03:15:24;98936.06;;;19.13;46.40
77281;BME280;66339;47.262;17.144;2023-04-15T03:17:52;98934.50;;;19.12;46.29
77281;BME280;66339;47.262;17.144;2023-04-15T03:20:23;98936.06;;;19.13;46.40
77281;BME280;66339;47.262;17.144;2023-04-15T03:22:51;98933.69;;;19.12;46.28
77281;BME280;66339;47.262;17.144;2023-04-15T03:25:22;98931.34;;;19.10;46.47
77281;BME280;66339;47.262;17.144;2023-04-15T03:27:53;98939.84;;;19.12;46.50
77281;BME280;66339;47.262;17.144;2023-04-15T03:30:24;98935.91;;;19.10;46.47
77281;BME280;66339;47.262;17.144;2023-04-15T03:32:51;98939.66;;;19.09;46.41
77281;BME280;66339;47.262;17.144;2023-04-15T03:35:19;98938.28;;;19.11;46.47
77281;BME280;66339;47.262;17.144;2023-04-15T03:37:52;98942.06;;;19.10;46.38
77281;BME280;66339;47.262;17.144;2023-04-15T03:40:20;98936.69;;;19.10;46.49
77281;BME280;66339;47.262;17.144;2023-04-15T03:42:52;98940.44;;;19.09;46.43
77281;BME280;66339;47.262;17.144;2023-04-15T03:45:25;98943.44;;;19.08;46.42
77281;BME280;66339;47.262;17.144;2023-04-15T03:47:52;98942.66;;;19.07;46.52
77281;BME280;66339;47.262;17.144;2023-04-15T03:50:32;98948.03;;;19.07;46.40
77281;BME280;66339;47.262;17.144;2023-04-15T03:53:01;98944.56;;;19.07;46.56
77281;BME280;66339;47.262;17.144;2023-04-15T03:55:31;98946.44;;;19.06;46.44
77281;BME280;66339;47.262;17.144;2023-04-15T03:58:03;98941.09;;;19.06;46.46
77281;BME280;66339;47.262;17.144;2023-04-15T04:00:32;98954.00;;;19.04;46.38
77281;BME280;66339;47.262;17.144;2023-04-15T04:03:00;98951.81;;;19.06;46.43
77281;BME280;66339;47.262;17.144;2023-04-15T04:05:28;98954.50;;;19.06;46.45
77281;BME280;66339;47.262;17.144;2023-04-15T04:07:56;98950.19;;;19.05;46.38
77281;BME280;66339;47.262;17.144;2023-04-15T04:10:29;98950.84;;;19.02;46.49
77281;BME280;66339;47.262;17.144;2023-04-15T04:12:57;98960.75;;;19.02;46.49
77281;BME280;66339;47.262;17.144;2023-04-15T04:15:28;98963.41;;;19.02;46.48
77281;BME280;66339;47.262;17.144;2023-04-15T04:17:58;98954.59;;;19.01;46.42
77281;BME280;66339;47.262;17.144;2023-04-15T04:20:32;98954.59;;;19.01;46.42
77281;BME280;66339;47.262;17.144;2023-04-15T04:23:06;98954.59;;;19.01;46.43
77281;BME280;66339;47.262;17.144;2023-04-15T04:25:34;98963.75;;;19.00;46.46
77281;BME280;66339;47.262;17.144;2023-04-15T04:28:06;98957.59;;;19.00;46.51
77281;BME280;66339;47.262;17.144;2023-04-15T04:30:34;98962.16;;;18.99;46.60
77281;BME280;66339;47.262;17.144;2023-04-15T04:33:08;98960.59;;;18.98;46.60
77281;BME280;66339;47.262;17.144;2023-04-15T04:35:36;98962.44;;;18.98;46.43
77281;BME280;66339;47.262;17.144;2023-04-15T04:38:06;98962.75;;;18.96;46.56
77281;BME280;66339;47.262;17.144;2023-04-15T04:40:37;98964.34;;;18.97;46.70
77281;BME280;66339;47.262;17.144;2023-04-15T04:43:06;98973.16;;;18.98;46.46
77281;BME280;66339;47.262;17.144;2023-04-15T04:45:34;98971.31;;;18.98;46.49
77281;BME280;66339;47.262;17.144;2023-04-15T04:48:02;98965.44;;;18.96;46.46
77281;BME280;66339;47.262;17.144;2023-04-15T04:50:36;98975.38;;;18.96;46.55
77281;BME280;66339;47.262;17.144;2023-04-15T04:53:05;98970.31;;;18.94;46.60
77281;BME280;66339;47.262;17.144;2023-04-15T04:55:33;98974.09;;;18.93;46.53
77281;BME280;66339;47.262;17.144;2023-04-15T04:58:04;98974.41;;;18.92;46.57
77281;BME280;66339;47.262;17.144;2023-04-15T05:00:31;98981.34;;;18.93;46.54
77281;BME280;66339;47.262;17.144;2023-04-15T05:03:03;98981.00;;;18.94;46.73
77281;BME280;66339;47.262;17.144;2023-04-15T05:05:31;98975.97;;;18.93;46.58
77281;BME280;66339;47.262;17.144;2023-04-15T05:07:58;98989.06;;;18.94;46.58
77281;BME280;66339;47.262;17.144;2023-04-15T05:10:33;98986.87;;;18.96;46.58
77281;BME280;66339;47.262;17.144;2023-04-15T05:13:03;98987.37;;;18.98;46.58
77281;BME280;66339;47.262;17.144;2023-04-15T05:15:35;98987.84;;;19.00;46.55
77281;BME280;66339;47.262;17.144;2023-04-15T05:18:02;98985.69;;;19.02;46.57
77281;BME280;66339;47.262;17.144;2023-04-15T05:20:39;98989.31;;;19.06;46.58
77281;BME280;66339;47.262;17.144;2023-04-15T05:23:10;98992.47;;;19.08;46.58
77281;BME280;66339;47.262;17.144;2023-04-15T05:25:37;98996.44;;;19.11;46.61
77281;BME280;66339;47.262;17.144;2023-04-15T05:28:07;98995.03;;;19.13;46.57
77281;BME280;66339;47.262;17.144;2023-04-15T05:30:41;98999.78;;;19.17;46.59
77281;BME280;66339;47.262;17.144;2023-04-15T05:33:15;98997.00;;;19.22;46.58
77281;BME280;66339;47.262;17.144;2023-04-15T05:35:45;99000.94;;;19.24;46.60
77281;BME280;66339;47.262;17.144;2023-04-15T05:38:13;98997.16;;;19.25;46.50
77281;BME280;66339;47.262;17.144;2023-04-15T05:40:49;99004.91;;;19.27;46.43
77281;BME280;66339;47.262;17.144;2023-04-15T05:43:17;99009.47;;;19.26;46.40
77281;BME280;66339;47.262;17.144;2023-04-15T05:45:50;99008.69;;;19.26;46.36
77281;BME280;66339;47.262;17.144;2023-04-15T05:48:24;99001.13;;;19.28;46.34
77281;BME280;66339;47.262;17.144;2023-04-15T05:50:55;99011.84;;;19.28;46.44
77281;BME280;66339;47.262;17.144;2023-04-15T05:53:23;99018.00;;;19.28;46.48
77281;BME280;66339;47.262;17.144;2023-04-15T05:55:57;99016.91;;;19.29;46.85
77281;BME280;66339;47.262;17.144;2023-04-15T05:58:27;99021.00;;;19.27;47.20
77281;BME280;66339;47.262;17.144;2023-04-15T06:01:03;99018.59;;;19.25;47.43
77281;BME280;66339;47.262;17.144;2023-04-15T06:03:30;99017.81;;;19.25;47.53
77281;BME280;66339;47.262;17.144;2023-04-15T06:05:58;99019.09;;;19.27;47.48
77281;BME280;66339;47.262;17.144;2023-04-15T06:08:31;99027.94;;;19.28;47.59
77281;BME280;66339;47.262;17.144;2023-04-15T06:11:02;99024.16;;;19.29;47.75
77281;BME280;66339;47.262;17.144;2023-04-15T06:13:33;99031.72;;;19.27;47.69
77281;BME280;66339;47.262;17.144;2023-04-15T06:16:01;99034.28;;;19.32;47.58
77281;BME280;66339;47.262;17.144;2023-04-15T06:18:32;99033.66;;;19.35;47.55
77281;BME280;66339;47.262;17.144;2023-04-15T06:20:59;99037.62;;;19.37;47.60
77281;BME280;66339;47.262;17.144;2023-04-15T06:23:27;99038.41;;;19.38;47.51
77281;BME280;66339;47.262;17.144;2023-04-15T06:26:01;99033.84;;;19.38;47.40
77281;BME280;66339;47.262;17.144;2023-04-15T06:28:28;99039.03;;;19.35;47.42
77281;BME280;66339;47.262;17.144;2023-04-15T06:30:56;99032.09;;;19.34;47.57
77281;BME280;66339;47.262;17.144;2023-04-15T06:33:29;99048.19;;;19.34;47.87
77281;BME280;66339;47.262;17.144;2023-04-15T06:35:59;99041.22;;;19.33;48.51
77281;BME280;66339;47.262;17.144;2023-04-15T06:38:32;99047.06;;;19.35;48.40
77281;BME280;66339;47.262;17.144;2023-04-15T06:41:06;99047.53;;;19.37;48.23
77281;BME280;66339;47.262;17.144;2023-04-15T06:43:33;99051.31;;;19.36;48.16
77281;BME280;66339;47.262;17.144;2023-04-15T06:46:05;99045.50;;;19.34;48.21
77281;BME280;66339;47.262;17.144;2023-04-15T06:48:35;99049.75;;;19.35;48.14
77281;BME280;66339;47.262;17.144;2023-04-15T06:51:02;99051.31;;;19.36;48.12
77281;BME280;66339;47.262;17.144;2023-04-15T06:53:29;99051.31;;;19.36;48.13
77281;BME280;66339;47.262;17.144;2023-04-15T06:55:59;99047.53;;;19.37;48.02
77281;BME280;66339;47.262;17.144;2023-04-15T06:58:26;99058.25;;;19.37;47.77
77281;BME280;66339;47.262;17.144;2023-04-15T07:00:53;99064.13;;;19.39;47.60
77281;BME280;66339;47.262;17.144;2023-04-15T07:03:26;99068.38;;;19.40;47.73
77281;BME280;66339;47.262;17.144;2023-04-15T07:05:58;99071.56;;;19.42;47.64
77281;BME280;66339;47.262;17.144;2023-04-15T07:08:28;99071.25;;;19.44;47.38
77281;BME280;66339;47.262;17.144;2023-04-15T07:10:55;99072.84;;;19.45;46.83
77281;BME280;66339;47.262;17.144;2023-04-15T07:13:25;99075.22;;;19.46;46.77
77281;BME280;66339;47.262;17.144;2023-04-15T07:15:52;99076.31;;;19.45;46.79
77281;BME280;66339;47.262;17.144;2023-04-15T07:18:19;99072.53;;;19.46;46.80
77281;BME280;66339;47.262;17.144;2023-04-15T07:20:47;99074.44;;;19.46;47.04
77281;BME280;66339;47.262;17.144;2023-04-15T07:23:24;99074.44;;;19.46;47.23
77281;BME280;66339;47.262;17.144;2023-04-15T07:25:52;99085.16;;;19.46;47.59
77281;BME280;66339;47.262;17.144;2023-04-15T07:28:21;99091.78;;;19.48;47.26
77281;BME280;66339;47.262;17.144;2023-04-15T07:30:55;99089.59;;;19.50;46.81
77281;BME280;66339;47.262;17.144;2023-04-15T07:33:23;99086.44;;;19.48;47.03
77281;BME280;66339;47.262;17.144;2023-04-15T07:35:53;99093.41;;;19.49;47.45
77281;BME280;66339;47.262;17.144;2023-04-15T07:38:20;99094.97;;;19.50;48.00
77281;BME280;66339;47.262;17.144;2023-04-15T07:40:54;99105.09;;;19.53;48.17
77281;BME280;66339;47.262;17.144;2023-04-15T07:43:28;99103.19;;;19.54;47.91
77281;BME280;66339;47.262;17.144;2023-04-15T07:45:55;99101.78;;;19.56;48.72
77281;BME280;66339;47.262;17.144;2023-04-15T07:48:25;99108.13;;;19.60;49.24
77281;BME280;66339;47.262;17.144;2023-04-15T07:50:53;99110.81;;;19.60;48.87
77281;BME280;66339;47.262;17.144;2023-04-15T07:53:30;99112.44;;;19.61;49.09
77281;BME280;66339;47.262;17.144;2023-04-15T07:55:58;99111.34;;;19.62;49.14
77281;BME280;66339;47.262;17.144;2023-04-15T07:58:24;99114.81;;;19.63;49.43
77281;BME280;66339;47.262;17.144;2023-04-15T08:00:54;99116.37;;;19.64;49.42
77281;BME280;66339;47.262;17.144;2023-04-15T08:03:23;99119.84;;;19.65;48.97
77281;BME280;66339;47.262;17.144;2023-04-15T08:05:54;99120.66;;;19.65;48.96
77281;BME280;66339;47.262;17.144;2023-04-15T08:08:27;99125.53;;;19.63;49.17
77281;BME280;66339;47.262;17.144;2023-04-15T08:11:03;99123.63;;;19.64;49.20
77281;BME280;66339;47.262;17.144;2023-04-15T08:13:36;99122.53;;;19.65;49.56
77281;BME280;66339;47.262;17.144;2023-04-15T08:16:19;99129.50;;;19.66;49.08
77281;BME280;66339;47.262;17.144;2023-04-15T08:18:54;99124.44;;;19.64;47.31
77281;BME280;66339;47.262;17.144;2023-04-15T08:21:24;99130.50;;;19.56;48.43
77281;BME280;66339;47.262;17.144;2023-04-15T08:23:57;99133.50;;;19.54;48.68
77281;BME280;66339;47.262;17.144;2023-04-15T08:26:24;99130.50;;;19.56;48.68
77281;BME280;66339;47.262;17.144;2023-04-15T08:28:50;99139.31;;;19.56;48.63
77281;BME280;66339;47.262;17.144;2023-04-15T08:31:21;99140.63;;;19.59;48.55
77281;BME280;66339;47.262;17.144;2023-04-15T08:33:51;99152.12;;;19.59;48.59
77281;BME280;66339;47.262;17.144;2023-04-15T08:36:27;99139.84;;;19.58;48.57
77281;BME280;66339;47.262;17.144;2023-04-15T08:38:59;99150.56;;;19.58;48.56
77281;BME280;66339;47.262;17.144;2023-04-15T08:41:38;99148.97;;;19.57;48.65
77281;BME280;66339;47.262;17.144;2023-04-15T08:44:09;99145.19;;;19.58;48.57
77281;BME280;66339;47.262;17.144;2023-04-15T08:46:39;99147.37;;;19.56;48.71
77281;BME280;66339;47.262;17.144;2023-04-15T08:49:18;99152.12;;;19.59;48.51
77281;BME280;66339;47.262;17.144;2023-04-15T08:51:50;99147.09;;;19.58;48.56
77281;BME280;66339;47.262;17.144;2023-04-15T08:54:24;99148.00;;;19.53;48.71
77281;BME280;66339;47.262;17.144;2023-04-15T08:56:54;99152.41;;;19.49;48.91
77281;BME280;66339;47.262;17.144;2023-04-15T08:59:27;99155.69;;;19.46;49.12
77281;BME280;66339;47.262;17.144;2023-04-15T09:02:08;99153.78;;;19.47;48.91
77281;BME280;66339;47.262;17.144;2023-04-15T09:04:40;99154.56;;;19.47;49.00
77281;BME280;66339;47.262;17.144;2023-04-15T09:07:11;99152.69;;;19.48;49.02
77281;BME280;66339;47.262;17.144;2023-04-15T09:09:51;99159.16;;;19.47;48.82
77281;BME280;66339;47.262;17.144;2023-04-15T09:12:18;99159.16;;;19.47;48.82
77281;BME280;66339;47.262;17.144;2023-04-15T09:14:50;99161.50;;;19.48;48.76
77281;BME280;66339;47.262;17.144;2023-04-15T09:17:30;99163.72;;;19.46;48.84
77281;BME280;66339;47.262;17.144;2023-04-15T09:20:13;99166.41;;;19.46;48.98
77281;BME280;66339;47.262;17.144;2023-04-15T09:22:44;99171.44;;;19.48;48.88
77281;BME280;66339;47.262;17.144;2023-04-15T09:25:25;99167.66;;;19.49;48.97
77281;BME280;66339;47.262;17.144;2023-04-15T09:27:59;99173.22;;;19.52;48.97
77281;BME280;66339;47.262;17.144;2023-04-15T09:30:30;99166.28;;;19.51;48.80
77281;BME280;66339;47.262;17.144;2023-04-15T09:33:03;99164.38;;;19.52;49.14
77281;BME280;66339;47.262;17.144;2023-04-15T09:35:38;99174.31;;;19.51;49.43
77281;BME280;66339;47.262;17.144;2023-04-15T09:38:07;99167.84;;;19.52;49.59
77281;BME280;66339;47.262;17.144;2023-04-15T09:40:41;99175.91;;;19.52;49.43
77281;BME280;66339;47.262;17.144;2023-04-15T09:43:15;99176.09;;;19.56;49.17
77281;BME280;66339;47.262;17.144;2023-04-15T09:45:55;99165.69;;;19.54;49.38
77281;BME280;66339;47.262;17.144;2023-04-15T09:48:32;99173.22;;;19.52;49.92
77281;BME280;66339;47.262;17.144;2023-04-15T09:51:08;99176.41;;;19.54;49.71
77281;BME280;66339;47.262;17.144;2023-04-15T09:53:42;99171.31;;;19.53;49.76
77281;BME280;66339;47.262;17.144;2023-04-15T09:56:16;99173.22;;;19.52;50.01
77281;BME280;66339;47.262;17.144;2023-04-15T09:58:56;99181.78;;;19.54;49.91
77281;BME280;66339;47.262;17.144;2023-04-15T10:01:28;99180.19;;;19.53;50.06
77281;BME280;66339;47.262;17.144;2023-04-15T10:04:13;99179.09;;;19.54;49.70
77281;BME280;66339;47.262;17.144;2023-04-15T10:06:49;99185.25;;;19.55;49.24
77281;BME280;66339;47.262;17.144;2023-04-15T10:09:24;99196.44;;;19.57;49.48
77281;BME280;66339;47.262;17.144;2023-04-15T10:11:59;99195.66;;;19.56;49.50
77281;BME280;66339;47.262;17.144;2023-04-15T10:14:34;99193.47;;;19.58;48.42
77281;BME280;66339;47.262;17.144;2023-04-15T10:17:10;99195.66;;;19.56;48.14
77281;BME280;66339;47.262;17.144;2023-04-15T10:19:50;99194.88;;;19.56;48.22
77281;BME280;66339;47.262;17.144;2023-04-15T10:22:23;99194.38;;;19.54;48.45
77281;BME280;66339;47.262;17.144;2023-04-15T10:25:02;99191.72;;;19.54;48.89
77281;BME280;66339;47.262;17.144;2023-04-15T10:27:34;99198.34;;;19.56;48.83
77281;BME280;66339;47.262;17.144;2023-04-15T10:30:13;99200.72;;;19.58;48.84
77281;BME280;66339;47.262;17.144;2023-04-15T10:32:49;99195.66;;;19.56;49.08
77281;BME280;66339;47.262;17.144;2023-04-15T10:35:41;99201.03;;;19.56;49.62
77281;BME280;66339;47.262;17.144;2023-04-15T10:38:38;99201.53;;;19.58;50.26
77281;BME280;66339;47.262;17.144;2023-04-15T10:41:28;99195.28;;;19.63;49.66
77281;BME280;66339;47.262;17.144;2023-04-15T10:44:03;99200.84;;;19.67;49.68
77281;BME280;66339;47.262;17.144;2023-04-15T10:46:44;99200.31;;;19.65;50.52
77281;BME280;66339;47.262;17.144;2023-04-15T10:49:26;99195.47;;;19.67;50.02
77281;BME280;66339;47.262;17.144;2023-04-15T10:52:04;99205.09;;;19.68;50.81
77281;BME280;66339;47.262;17.144;2023-04-15T10:54:45;99205.59;;;19.70;51.29
77281;BME280;66339;47.262;17.144;2023-04-15T10:57:21;99198.03;;;19.72;51.16
77281;BME280;66339;47.262;17.144;2023-04-15T11:00:12;99201.22;;;19.74;51.08
77281;BME280;66339;47.262;17.144;2023-04-15T11:02:51;99210.84;;;19.75;51.08
77281;BME280;66339;47.262;17.144;2023-04-15T11:08:15;99214.19;;;19.80;50.49
77281;BME280;66339;47.262;17.144;2023-04-15T11:13:18;99223.37;;;19.88;49.75
77281;BME280;66339;47.262;17.144;2023-04-15T11:15:54;99218.03;;;19.88;49.79
77281;BME280;66339;47.262;17.144;2023-04-15T11:18:28;99205.91;;;19.91;49.73
77281;BME280;66339;47.262;17.144;2023-04-15T11:21:05;99214.44;;;19.93;49.51
77281;BME280;66339;47.262;17.144;2023-04-15T11:23:42;99216.03;;;19.94;49.12
77281;BME280;66339;47.262;17.144;2023-04-15T11:26:15;99211.44;;;19.94;48.36
77281;BME280;66339;47.262;17.144;2023-04-15T11:28:51;99213.03;;;19.95;48.15
77281;BME280;66339;47.262;17.144;2023-04-15T11:31:18;99213.03;;;19.95;48.78
77281;BME280;66339;47.262;17.144;2023-04-15T11:34:00;99208.44;;;19.96;49.03
77281;BME280;66339;47.262;17.144;2023-04-15T11:36:34;99211.62;;;19.98;49.18
77281;BME280;66339;47.262;17.144;2023-04-15T11:39:06;99220.16;;;20.00;48.80
77281;BME280;66339;47.262;17.144;2023-04-15T11:41:41;99206.44;;;20.01;48.62
77281;BME280;66339;47.262;17.144;2023-04-15T11:44:25;99214.69;;;20.05;48.59
77281;BME280;66339;47.262;17.144;2023-04-15T11:46:53;99210.09;;;20.05;48.64
77281;BME280;66339;47.262;17.144;2023-04-15T11:49:28;99207.63;;;20.09;48.59
77281;BME280;66339;47.262;17.144;2023-04-15T11:52:17;99212.19;;;20.08;48.66
77281;BME280;66339;47.262;17.144;2023-04-15T11:54:44;99206.81;;;20.08;48.75
77281;BME280;66339;47.262;17.144;2023-04-15T11:57:18;99209.37;;;20.14;48.77
77281;BME280;66339;47.262;17.144;2023-04-15T11:59:45;99210.94;;;20.15;49.06
77281;BME280;66339;47.262;17.144;2023-04-15T12:02:30;99203.41;;;20.17;49.23
77281;BME280;66339;47.262;17.144;2023-04-15T12:05:12;99202.59;;;20.16;48.85
77281;BME280;66339;47.262;17.144;2023-04-15T12:08:04;99202.28;;;20.18;49.12
77281;BME280;66339;47.262;17.144;2023-04-15T12:10:40;99210.03;;;20.19;49.79
77281;BME280;66339;47.262;17.144;2023-04-15T12:13:14;99214.31;;;20.20;49.85
77281;BME280;66339;47.262;17.144;2023-04-15T12:15:44;99199.47;;;20.23;49.82
77281;BME280;66339;47.262;17.144;2023-04-15T12:18:18;99205.34;;;20.25;49.67
77281;BME280;66339;47.262;17.144;2023-04-15T12:20:53;99210.69;;;20.25;48.90
77281;BME280;66339;47.262;17.144;2023-04-15T12:23:21;99206.59;;;20.27;47.58
77281;BME280;66339;47.262;17.144;2023-04-15T12:26:17;99204.09;;;20.31;46.77
77281;BME280;66339;47.262;17.144;2023-04-15T12:29:37;99202.69;;;20.33;45.67
77281;BME280;66339;47.262;17.144;2023-04-15T12:32:38;99213.63;;;20.37;44.72
77281;BME280;66339;47.262;17.144;2023-04-15T12:35:58;99203.97;;;20.36;44.09
77281;BME280;66339;47.262;17.144;2023-04-15T12:38:31;99206.66;;;20.36;44.30
77281;BME280;66339;47.262;17.144;2023-04-15T12:41:04;99205.69;;;20.32;46.87
77281;BME280;66339;47.262;17.144;2023-04-15T12:43:37;99212.66;;;20.33;48.27
77281;BME280;66339;47.262;17.144;2023-04-15T12:46:04;99216.31;;;20.37;48.87
77281;BME280;66339;47.262;17.144;2023-04-15T12:48:43;99206.84;;;20.40;49.01
77281;BME280;66339;47.262;17.144;2023-04-15T12:51:16;99219.34;;;20.44;49.08
77281;BME280;66339;47.262;17.144;2023-04-15T12:53:49;99215.22;;;20.47;49.32
77281;BME280;66339;47.262;17.144;2023-04-15T12:56:21;99219.69;;;20.51;49.36
77281;BME280;66339;47.262;17.144;2023-04-15T12:58:52;99224.47;;;20.54;49.39
77281;BME280;66339;47.262;17.144;2023-04-15T13:01:20;99227.66;;;20.56;49.39
77281;BME280;66339;47.262;17.144;2023-04-15T13:03:53;99226.22;;;20.59;49.42
77281;BME280;66339;47.262;17.144;2023-04-15T13:06:25;99227.81;;;20.60;49.57
77281;BME280;66339;47.262;17.144;2023-04-15T13:08:58;99231.75;;;20.63;49.62
77281;BME280;66339;47.262;17.144;2023-04-15T13:11:28;99228.78;;;20.64;49.68
77281;BME280;66339;47.262;17.144;2023-04-15T13:14:06;99231.16;;;20.66;49.69
77281;BME280;66339;47.262;17.144;2023-04-15T13:16:40;99243.47;;;20.67;49.77
77281;BME280;66339;47.262;17.144;2023-04-15T13:19:17;99241.28;;;20.69;50.02
77281;BME280;66339;47.262;17.144;2023-04-15T13:21:44;99245.87;;;20.68;50.20
77281;BME280;66339;47.262;17.144;2023-04-15T13:24:20;99249.81;;;20.71;50.07